Astoria, Illinois
Current Conditions -  °F | °C
As of 7:15 PM on Friday 19 Dec 2014 (Local Time) from KMQB Reporting Station
Overcast Overcast  
Wind Chill: 25°   Ceiling: 5500
Heat Index: 30°   Visibility: 7mi
Dew Point: 27°   Wind: 5mph
Humidity: 87%   Direction: 130°SE
Pressure: 30.29"   Gusts: NA
Location:  40.23°N, 90.36°W
Report Text: KMQB 200115Z AUTO 13004KT 7SM OVC055 M01/M03 A3029 RMK AO2 T10101029
Loading
Personal Weather Stations






























Interactive Weather Map New forecast layout! Learn more

10-Day Weather Forecast

Advertisements
Track Severe Weather on mobile